createdAt,value
2022-12-11T00:01:59.882Z,39.35
2022-12-11T00:04:30.846Z,34.67
2022-12-11T00:07:01.107Z,36.67
2022-12-11T00:09:31.907Z,41.22
2022-12-11T00:12:03.431Z,47.67
2022-12-11T00:14:34.027Z,34.40
2022-12-11T00:17:05.545Z,36.35
2022-12-11T00:19:36.139Z,32.72
2022-12-11T00:22:09.547Z,35.88
2022-12-11T00:24:40.052Z,37.40
2022-12-11T00:27:10.586Z,36.95
2022-12-11T00:29:41.219Z,37.30
2022-12-11T00:32:11.546Z,35.58
2022-12-11T00:34:42.277Z,34.80
2022-12-11T00:37:12.826Z,35.22
2022-12-11T00:39:43.611Z,32.58
2022-12-11T00:42:14.713Z,35.15
2022-12-11T00:44:45.050Z,45.25
2022-12-11T00:47:16.404Z,39.03
2022-12-11T00:49:49.999Z,36.05
2022-12-11T00:52:20.770Z,27.58
2022-12-11T00:54:52.160Z,31.88
2022-12-11T00:57:22.768Z,32.47
2022-12-11T00:59:52.952Z,33.60
2022-12-11T01:02:24.085Z,37.22
2022-12-11T01:04:54.847Z,33.95
2022-12-11T01:07:26.265Z,36.88
2022-12-11T01:10:14.953Z,34.50
2022-12-11T01:12:45.212Z,38.83
2022-12-11T01:15:15.843Z,33.00
2022-12-11T01:17:46.339Z,40.40
2022-12-11T01:20:18.249Z,38.35
2022-12-11T01:22:48.744Z,36.78
2022-12-11T01:25:19.677Z,33.90
2022-12-11T01:27:52.838Z,34.58
2022-12-11T01:30:26.018Z,38.97
2022-12-11T01:32:57.802Z,41.67
2022-12-11T01:35:29.085Z,38.20
2022-12-11T01:38:00.267Z,51.47
2022-12-11T01:40:30.779Z,42.88
2022-12-11T01:43:01.776Z,32.95
2022-12-11T01:45:33.753Z,34.25
2022-12-11T01:48:11.853Z,35.35
2022-12-11T01:50:58.361Z,36.10
2022-12-11T01:53:38.727Z,34.85
2022-12-11T01:56:10.319Z,32.42
2022-12-11T01:58:49.108Z,32.60
2022-12-11T02:01:48.050Z,35.10
2022-12-11T02:04:20.969Z,35.75
2022-12-11T02:06:53.579Z,31.60
2022-12-11T02:09:28.960Z,35.35
2022-12-11T02:12:25.441Z,35.65
2022-12-11T02:14:58.454Z,37.25
2022-12-11T02:18:06.274Z,40.13
2022-12-11T02:20:39.854Z,33.25
2022-12-11T02:23:54.330Z,32.42
2022-12-11T02:26:48.738Z,31.88
2022-12-11T02:29:24.748Z,32.38
2022-12-11T02:32:04.845Z,35.53
2022-12-11T02:35:04.451Z,26.58
2022-12-11T02:37:38.447Z,32.65
2022-12-11T02:40:11.912Z,29.40
2022-12-11T02:42:44.484Z,33.50
2022-12-11T02:45:16.432Z,29.92
2022-12-11T02:47:49.419Z,36.65
2022-12-11T02:50:21.853Z,38.92
2022-12-11T02:52:56.708Z,23.73
2022-12-11T02:55:28.739Z,29.00
2022-12-11T02:58:17.925Z,26.95
2022-12-11T03:00:48.829Z,26.98
2022-12-11T03:03:19.264Z,24.48
2022-12-11T03:05:49.836Z,27.17
2022-12-11T03:08:21.069Z,27.17
2022-12-11T03:10:53.103Z,31.23
2022-12-11T03:13:24.468Z,27.85
2022-12-11T03:16:24.198Z,28.60
2022-12-11T03:19:49.977Z,27.67
2022-12-11T03:22:40.949Z,34.10
2022-12-11T03:25:25.140Z,30.25
2022-12-11T03:28:11.858Z,28.40
2022-12-11T03:30:43.201Z,23.88
2022-12-11T03:33:20.004Z,24.35
2022-12-11T03:35:55.701Z,31.90
2022-12-11T03:38:33.075Z,29.52
2022-12-11T03:41:05.324Z,26.85
2022-12-11T03:43:36.474Z,28.10
2022-12-11T03:46:07.927Z,24.58
2022-12-11T03:48:42.683Z,27.38
2022-12-11T03:51:13.015Z,28.38
2022-12-11T03:53:43.226Z,26.95
2022-12-11T03:56:15.045Z,40.00
2022-12-11T03:58:45.563Z,26.83
2022-12-11T04:01:16.446Z,27.95
2022-12-11T04:03:47.006Z,24.02
2022-12-11T04:06:17.742Z,26.50
2022-12-11T04:08:49.265Z,19.70
2022-12-11T04:11:35.576Z,19.83
2022-12-11T04:14:27.088Z,23.50
2022-12-11T04:16:58.341Z,16.15
2022-12-11T04:19:47.569Z,20.65
2022-12-11T04:22:38.322Z,24.60
2022-12-11T04:25:10.312Z,21.85
2022-12-11T04:27:50.217Z,23.90
2022-12-11T04:30:26.071Z,22.02
2022-12-11T04:33:00.330Z,27.38
2022-12-11T04:35:33.497Z,26.00
2022-12-11T04:38:04.411Z,18.85
2022-12-11T04:40:34.807Z,26.25
2022-12-11T04:43:05.908Z,29.38
2022-12-11T04:45:36.263Z,17.73
2022-12-11T04:48:06.994Z,22.80
2022-12-11T04:50:37.921Z,22.17
2022-12-11T04:53:08.497Z,23.10
2022-12-11T04:55:40.888Z,23.02
2022-12-11T04:58:11.110Z,20.55
2022-12-11T05:00:43.137Z,18.13
2022-12-11T05:03:14.118Z,20.50
2022-12-11T05:05:53.048Z,21.80
2022-12-11T05:08:23.983Z,16.90
2022-12-11T05:11:00.944Z,19.17
2022-12-11T05:13:32.852Z,17.48
2022-12-11T05:16:06.735Z,20.40
2022-12-11T05:18:37.361Z,16.83
2022-12-11T05:21:12.808Z,17.05
2022-12-11T05:23:43.977Z,26.17
2022-12-11T05:26:19.559Z,19.75
2022-12-11T05:28:55.127Z,20.15
2022-12-11T05:31:28.032Z,21.27
2022-12-11T05:33:58.661Z,23.35
2022-12-11T05:36:31.440Z,21.80
2022-12-11T05:39:02.611Z,22.80
2022-12-11T05:41:35.430Z,30.40
2022-12-11T05:44:05.741Z,25.40
2022-12-11T05:46:36.715Z,28.73
2022-12-11T05:49:07.315Z,28.75
2022-12-11T05:51:37.680Z,34.00
2022-12-11T05:54:08.598Z,27.95
2022-12-11T05:56:39.362Z,32.35
2022-12-11T05:59:10.809Z,30.60
2022-12-11T06:01:43.789Z,35.17
2022-12-11T06:04:14.924Z,25.77
2022-12-11T06:06:45.868Z,31.00
2022-12-11T06:09:17.478Z,24.17
2022-12-11T06:11:48.069Z,23.90
2022-12-11T06:14:18.307Z,29.08
2022-12-11T06:16:49.151Z,34.63
2022-12-11T06:19:19.842Z,31.55
2022-12-11T06:21:51.611Z,29.60
2022-12-11T06:24:22.038Z,24.85
2022-12-11T06:26:52.563Z,27.15
2022-12-11T06:29:23.416Z,28.48
2022-12-11T06:31:53.804Z,22.90
2022-12-11T06:34:24.418Z,22.05
2022-12-11T06:36:55.229Z,23.10
2022-12-11T06:39:25.743Z,24.15
2022-12-11T06:41:56.758Z,26.60
2022-12-11T06:44:27.347Z,28.40
2022-12-11T06:46:57.702Z,29.35
2022-12-11T06:49:28.506Z,33.65
2022-12-11T06:51:59.596Z,30.42
2022-12-11T06:54:29.975Z,32.97
2022-12-11T06:57:00.613Z,25.42
2022-12-11T06:59:31.241Z,27.63
2022-12-11T07:02:01.618Z,28.63
2022-12-11T07:04:32.370Z,24.15
2022-12-11T07:07:02.701Z,29.08
2022-12-11T07:09:33.024Z,25.52
2022-12-11T07:12:05.078Z,35.20
2022-12-11T07:14:35.946Z,26.60
2022-12-11T07:17:07.131Z,28.85
2022-12-11T07:19:39.195Z,34.65
2022-12-11T07:22:09.780Z,24.52
2022-12-11T07:24:41.126Z,27.90
2022-12-11T07:27:13.799Z,28.17
2022-12-11T07:29:44.153Z,25.20
2022-12-11T07:32:15.555Z,28.60
2022-12-11T07:34:51.560Z,27.75
2022-12-11T07:37:22.961Z,27.33
2022-12-11T07:39:54.290Z,26.23
2022-12-11T07:42:25.409Z,29.10
2022-12-11T07:44:55.844Z,20.88
2022-12-11T07:47:26.363Z,28.23
2022-12-11T07:49:57.432Z,28.38
2022-12-11T07:52:28.285Z,31.85
2022-12-11T07:54:58.574Z,32.75
2022-12-11T07:57:40.023Z,27.85
2022-12-11T08:00:12.672Z,31.13
2022-12-11T08:02:45.421Z,27.83
2022-12-11T08:05:16.720Z,28.85
2022-12-11T08:07:47.968Z,24.45
2022-12-11T08:10:19.208Z,27.95
2022-12-11T08:12:49.736Z,28.23
2022-12-11T08:15:20.284Z,32.45
2022-12-11T08:17:50.832Z,31.77
2022-12-11T08:20:21.409Z,24.58
2022-12-11T08:22:56.031Z,30.58
2022-12-11T08:25:30.245Z,42.70
2022-12-11T08:28:00.364Z,38.00
2022-12-11T08:30:31.336Z,33.72
2022-12-11T08:33:01.689Z,30.45
2022-12-11T08:35:32.304Z,45.72
2022-12-11T08:38:03.719Z,40.70
2022-12-11T08:40:34.696Z,36.58
2022-12-11T08:43:05.249Z,41.58
2022-12-11T08:45:37.191Z,30.80
2022-12-11T08:48:09.024Z,31.50
2022-12-11T08:50:40.476Z,33.75
2022-12-11T08:53:11.044Z,45.20
2022-12-11T08:55:41.825Z,47.50
2022-12-11T08:58:12.519Z,32.13
2022-12-11T09:00:43.703Z,33.80
2022-12-11T09:03:14.411Z,31.33
2022-12-11T09:05:45.168Z,29.80
2022-12-11T09:08:15.783Z,38.28
2022-12-11T09:10:48.936Z,40.35
2022-12-11T09:13:19.321Z,47.15
2022-12-11T09:15:49.829Z,42.45
2022-12-11T09:18:22.483Z,36.40
2022-12-11T09:21:07.872Z,36.38
2022-12-11T09:23:39.530Z,34.50
2022-12-11T09:26:13.062Z,32.88
2022-12-11T09:28:47.043Z,36.00
2022-12-11T09:31:20.468Z,43.60
2022-12-11T09:33:51.665Z,34.72
2022-12-11T09:36:25.116Z,31.08
2022-12-11T09:38:55.662Z,32.63
2022-12-11T09:42:07.755Z,32.60
2022-12-11T09:44:48.993Z,36.58
2022-12-11T09:47:51.180Z,33.88
2022-12-11T09:50:27.215Z,36.80
2022-12-11T09:53:34.081Z,39.25
2022-12-11T09:56:11.574Z,41.97
2022-12-11T09:58:54.025Z,41.42
2022-12-11T10:01:41.690Z,41.47
2022-12-11T10:04:12.357Z,39.17
2022-12-11T10:07:21.131Z,39.95
2022-12-11T10:09:57.312Z,49.30
2022-12-11T10:12:51.085Z,58.00
2022-12-11T10:15:31.777Z,41.08
2022-12-11T10:18:05.117Z,45.65
2022-12-11T10:20:40.154Z,50.03
2022-12-11T10:23:20.047Z,42.78
2022-12-11T10:25:58.624Z,40.90
2022-12-11T10:28:30.036Z,41.58
2022-12-11T10:31:07.599Z,44.75
2022-12-11T10:33:57.746Z,42.88
2022-12-11T10:36:37.221Z,43.67
2022-12-11T10:39:20.324Z,44.70
2022-12-11T10:41:55.459Z,45.78
2022-12-11T10:44:29.231Z,45.22
2022-12-11T10:47:13.853Z,38.28
2022-12-11T10:49:56.984Z,36.13
2022-12-11T10:52:30.602Z,39.15
2022-12-11T10:55:19.431Z,41.00
2022-12-11T10:58:00.475Z,49.03
2022-12-11T11:00:38.060Z,48.50
2022-12-11T11:03:27.570Z,44.55
2022-12-11T11:06:28.089Z,61.60
2022-12-11T11:08:59.957Z,60.10
2022-12-11T11:11:39.350Z,65.65
2022-12-11T11:14:21.517Z,55.20
2022-12-11T11:16:57.214Z,53.03
2022-12-11T11:19:38.262Z,40.53
2022-12-11T11:22:14.352Z,46.00
2022-12-11T11:24:55.986Z,42.33
2022-12-11T11:27:37.377Z,50.38
2022-12-11T11:30:20.065Z,44.30
2022-12-11T11:32:56.307Z,54.63
2022-12-11T11:35:28.985Z,47.70
2022-12-11T11:38:33.195Z,46.45
2022-12-11T11:41:13.169Z,47.80
2022-12-11T11:43:54.892Z,59.08
2022-12-11T11:46:44.149Z,52.10
2022-12-11T11:50:04.318Z,49.40
2022-12-11T11:52:52.441Z,57.13
2022-12-11T11:55:54.450Z,61.72
2022-12-11T11:58:29.539Z,64.40
2022-12-11T12:01:00.207Z,63.40
2022-12-11T12:03:31.309Z,53.83
2022-12-11T12:06:26.331Z,60.40
2022-12-11T12:09:29.445Z,61.97
2022-12-11T12:12:19.392Z,63.97
2022-12-11T12:14:59.334Z,70.75
2022-12-11T12:17:37.124Z,60.63
2022-12-11T12:20:15.830Z,59.08
2022-12-11T12:23:04.346Z,64.25
2022-12-11T12:25:45.773Z,57.47
2022-12-11T12:28:24.144Z,68.40
2022-12-11T12:31:03.225Z,63.45
2022-12-11T12:33:39.755Z,60.40
2022-12-11T12:36:18.466Z,63.67
2022-12-11T12:38:51.819Z,63.30
2022-12-11T12:41:37.418Z,63.92
2022-12-11T12:44:20.668Z,68.75
2022-12-11T12:46:57.956Z,61.58
2022-12-11T12:49:46.710Z,68.03
2022-12-11T12:52:34.016Z,59.38
2022-12-11T12:55:30.426Z,61.35
2022-12-11T12:58:06.702Z,51.65
2022-12-11T13:00:44.458Z,53.40
2022-12-11T13:03:31.350Z,58.25
2022-12-11T13:06:06.855Z,58.17
2022-12-11T13:08:55.735Z,65.88
2022-12-11T13:11:36.250Z,63.08
2022-12-11T13:14:07.231Z,51.83
2022-12-11T13:16:42.579Z,51.88
2022-12-11T13:19:42.549Z,52.63
2022-12-11T13:22:16.318Z,51.33
2022-12-11T13:25:03.265Z,51.92
2022-12-11T13:27:39.109Z,55.85
2022-12-11T13:30:27.916Z,52.45
2022-12-11T13:33:19.783Z,59.60
2022-12-11T13:36:16.692Z,49.35
2022-12-11T13:38:57.312Z,51.85
2022-12-11T13:41:28.964Z,49.75
2022-12-11T13:43:59.846Z,62.15
2022-12-11T13:46:33.526Z,46.58
2022-12-11T13:49:07.831Z,50.67
2022-12-11T13:51:55.135Z,44.47
2022-12-11T13:54:26.177Z,42.47
2022-12-11T13:57:04.459Z,46.42
2022-12-11T13:59:40.017Z,43.05
2022-12-11T14:02:28.270Z,41.92
2022-12-11T14:05:02.559Z,41.90
2022-12-11T14:07:35.114Z,44.78
2022-12-11T14:10:10.682Z,48.10
2022-12-11T14:12:49.042Z,42.92
2022-12-11T14:15:20.060Z,48.45
2022-12-11T14:17:52.119Z,48.55
2022-12-11T14:20:25.736Z,41.88
2022-12-11T14:23:28.933Z,44.05
2022-12-11T14:26:14.754Z,44.03
2022-12-11T14:28:45.745Z,45.80
2022-12-11T14:31:20.118Z,45.50
2022-12-11T14:34:03.106Z,47.85
2022-12-11T14:36:34.732Z,40.42
2022-12-11T14:39:28.663Z,44.17
2022-12-11T14:42:16.735Z,46.47
2022-12-11T14:44:56.574Z,45.17
2022-12-11T14:47:32.411Z,40.33
2022-12-11T14:50:36.888Z,43.47
2022-12-11T14:53:15.489Z,41.50
2022-12-11T14:55:47.007Z,39.97
2022-12-11T14:58:23.164Z,37.70
2022-12-11T15:01:06.135Z,45.65
2022-12-11T15:03:39.029Z,39.38
2022-12-11T15:06:45.706Z,42.50
2022-12-11T15:09:30.438Z,45.30
2022-12-11T15:12:11.705Z,44.22
2022-12-11T15:14:52.538Z,43.35
2022-12-11T15:17:24.924Z,41.08
2022-12-11T15:19:59.063Z,41.55
2022-12-11T15:22:34.256Z,38.22
2022-12-11T15:25:04.781Z,45.00
2022-12-11T15:27:37.779Z,42.97
2022-12-11T15:30:29.412Z,44.17
2022-12-11T15:33:12.226Z,42.40
2022-12-11T15:36:02.432Z,43.45
2022-12-11T15:38:38.627Z,41.60
2022-12-11T15:41:15.148Z,42.05
2022-12-11T15:43:46.307Z,36.08
2022-12-11T15:46:17.119Z,37.67
2022-12-11T15:48:48.764Z,33.50
2022-12-11T15:51:19.651Z,33.72
2022-12-11T15:53:50.093Z,39.35
2022-12-11T15:56:20.705Z,39.72
2022-12-11T15:58:51.238Z,39.63
2022-12-11T16:01:22.149Z,41.33
2022-12-11T16:03:52.443Z,43.78
2022-12-11T16:06:22.842Z,41.05
2022-12-11T16:08:53.066Z,36.58
2022-12-11T16:11:23.390Z,39.78
2022-12-11T16:13:54.189Z,40.17
2022-12-11T16:16:24.670Z,34.72
2022-12-11T16:18:55.787Z,34.72
2022-12-11T16:21:26.268Z,36.85
2022-12-11T16:23:57.120Z,39.83
2022-12-11T16:26:28.104Z,35.28
2022-12-11T16:28:58.596Z,32.20
2022-12-11T16:31:29.825Z,35.53
2022-12-11T16:34:00.648Z,30.00
2022-12-11T16:36:30.916Z,31.75
2022-12-11T16:39:01.712Z,31.92
2022-12-11T16:41:32.230Z,30.48
2022-12-11T16:44:04.517Z,31.02
2022-12-11T16:46:35.755Z,29.48
2022-12-11T16:49:06.668Z,32.72
2022-12-11T16:51:37.318Z,32.88
2022-12-11T16:54:07.925Z,30.40
2022-12-11T16:56:39.462Z,25.98
2022-12-11T16:59:13.829Z,29.20
2022-12-11T17:01:45.904Z,30.13
2022-12-11T17:04:19.035Z,32.53
2022-12-11T17:06:58.513Z,29.98
2022-12-11T17:09:31.750Z,26.55
2022-12-11T17:12:02.015Z,28.73
2022-12-11T17:14:32.615Z,24.08
2022-12-11T17:17:04.671Z,25.85
2022-12-11T17:19:37.454Z,25.88
2022-12-11T17:22:08.689Z,31.73
2022-12-11T17:24:39.327Z,27.98
2022-12-11T17:27:09.905Z,25.45
2022-12-11T17:29:40.502Z,19.75
2022-12-11T17:32:11.473Z,19.20
2022-12-11T17:34:42.283Z,22.48
2022-12-11T17:37:13.254Z,24.27
2022-12-11T17:39:43.778Z,19.90
2022-12-11T17:42:15.359Z,23.17
2022-12-11T17:44:46.510Z,21.33
2022-12-11T17:47:17.052Z,21.10
2022-12-11T17:49:47.301Z,20.08
2022-12-11T17:52:17.836Z,20.58
2022-12-11T17:54:48.472Z,19.63
2022-12-11T17:57:19.261Z,20.67
2022-12-11T17:59:59.172Z,19.92
2022-12-11T18:02:29.997Z,18.58
2022-12-11T18:05:00.576Z,19.88
2022-12-11T18:07:30.821Z,19.90
2022-12-11T18:10:01.398Z,21.48
2022-12-11T18:12:32.011Z,19.05
2022-12-11T18:15:03.549Z,20.88
2022-12-11T18:17:34.584Z,17.90
2022-12-11T18:20:09.475Z,19.10
2022-12-11T18:22:40.086Z,21.73
2022-12-11T18:25:13.476Z,25.40
2022-12-11T18:27:44.418Z,25.25
2022-12-11T18:30:15.487Z,22.02
2022-12-11T18:32:46.513Z,23.95
2022-12-11T18:35:17.204Z,19.65
2022-12-11T18:37:48.189Z,23.70
2022-12-11T18:40:18.967Z,22.95
2022-12-11T18:42:50.520Z,27.05
2022-12-11T18:45:20.995Z,29.67
2022-12-11T18:47:56.580Z,29.50
2022-12-11T18:50:28.915Z,22.40
2022-12-11T18:53:01.279Z,32.00
2022-12-11T18:55:31.833Z,34.85
2022-12-11T18:58:03.035Z,30.85
2022-12-11T19:00:33.508Z,31.88
2022-12-11T19:03:04.066Z,36.58
2022-12-11T19:05:34.885Z,29.38
2022-12-11T19:08:05.638Z,28.23
2022-12-11T19:10:43.762Z,26.00
2022-12-11T19:13:15.631Z,31.35
2022-12-11T19:15:48.233Z,29.80
2022-12-11T19:18:19.180Z,22.25
2022-12-11T19:20:52.376Z,23.77
2022-12-11T19:23:32.691Z,23.67
2022-12-11T19:26:03.425Z,24.42
2022-12-11T19:28:35.386Z,25.90
2022-12-11T19:31:05.812Z,27.20
2022-12-11T19:33:45.604Z,30.13
2022-12-11T19:36:22.421Z,24.73
2022-12-11T19:38:57.894Z,24.85
2022-12-11T19:41:32.621Z,25.88
2022-12-11T19:44:03.304Z,24.88
2022-12-11T19:46:34.176Z,29.50
2022-12-11T19:49:05.367Z,28.98
2022-12-11T19:51:39.443Z,27.83
2022-12-11T19:54:13.195Z,33.65
2022-12-11T19:56:43.796Z,35.33
2022-12-11T19:59:17.675Z,32.08
2022-12-11T20:01:49.213Z,32.90
2022-12-11T20:04:20.921Z,31.73
2022-12-11T20:06:51.684Z,29.30
2022-12-11T20:09:23.136Z,30.95
2022-12-11T20:11:53.593Z,22.77
2022-12-11T20:14:26.349Z,33.47
2022-12-11T20:17:14.357Z,31.38
2022-12-11T20:19:45.397Z,29.38
2022-12-11T20:22:18.848Z,29.02
2022-12-11T20:24:50.065Z,29.00
2022-12-11T20:27:20.575Z,25.35
2022-12-11T20:29:50.854Z,28.75
2022-12-11T20:32:21.547Z,34.92
2022-12-11T20:34:51.891Z,33.22
2022-12-11T20:37:22.702Z,32.33
2022-12-11T20:39:53.458Z,27.08
2022-12-11T20:42:24.688Z,32.38
2022-12-11T20:44:56.497Z,32.75
2022-12-11T20:47:27.256Z,28.92
2022-12-11T20:49:57.567Z,33.55
2022-12-11T20:52:29.040Z,26.95
2022-12-11T20:55:01.589Z,30.25
2022-12-11T20:57:32.027Z,24.52
2022-12-11T21:00:03.679Z,26.23
2022-12-11T21:02:35.003Z,21.02
2022-12-11T21:05:05.709Z,19.35
2022-12-11T21:07:36.205Z,21.52
2022-12-11T21:10:07.807Z,20.65
2022-12-11T21:12:39.166Z,18.65
2022-12-11T21:15:12.725Z,23.17
2022-12-11T21:17:43.372Z,18.35
2022-12-11T21:20:14.041Z,17.77
2022-12-11T21:22:44.800Z,17.15
2022-12-11T21:25:15.184Z,23.13
2022-12-11T21:27:47.861Z,20.58
2022-12-11T21:30:18.264Z,19.98
2022-12-11T21:32:48.920Z,21.50
2022-12-11T21:35:22.703Z,20.38
2022-12-11T21:37:53.651Z,22.35
2022-12-11T21:40:24.412Z,20.27
2022-12-11T21:42:55.169Z,17.17
2022-12-11T21:45:59.306Z,21.80
2022-12-11T21:48:17.069Z,25.33
2022-12-11T21:50:47.616Z,24.58
2022-12-11T21:53:19.089Z,26.50
2022-12-11T21:55:49.926Z,25.30
2022-12-11T21:58:22.340Z,23.48
2022-12-11T22:00:53.263Z,29.70
2022-12-11T22:03:23.638Z,25.65
2022-12-11T22:05:54.200Z,30.70
2022-12-11T22:08:25.179Z,28.48
2022-12-11T22:10:56.607Z,25.88
2022-12-11T22:13:26.907Z,26.33
2022-12-11T22:15:58.576Z,27.48
2022-12-11T22:18:29.557Z,32.50
2022-12-11T22:21:03.201Z,30.20
2022-12-11T22:23:33.477Z,27.38
2022-12-11T22:26:03.882Z,32.70
2022-12-11T22:28:37.037Z,31.05
2022-12-11T22:31:12.523Z,28.30
2022-12-11T22:33:43.080Z,27.00
2022-12-11T22:36:13.400Z,36.83
2022-12-11T22:38:44.402Z,36.10
2022-12-11T22:41:22.201Z,31.20
2022-12-11T22:43:53.186Z,33.38
2022-12-11T22:46:25.763Z,31.08
2022-12-11T22:48:56.869Z,36.58
2022-12-11T22:51:27.232Z,35.08
2022-12-11T22:53:57.771Z,42.15
2022-12-11T22:56:28.758Z,41.80
2022-12-11T22:59:00.195Z,36.65
2022-12-11T23:01:30.947Z,39.60
2022-12-11T23:04:01.281Z,38.58
2022-12-11T23:06:32.190Z,33.33
2022-12-11T23:09:05.949Z,33.53
2022-12-11T23:11:38.747Z,34.20
2022-12-11T23:14:12.544Z,38.20
2022-12-11T23:16:43.612Z,39.28
2022-12-11T23:19:14.934Z,37.47
2022-12-11T23:21:45.592Z,40.85
2022-12-11T23:24:16.308Z,43.35
2022-12-11T23:26:46.934Z,40.15
2022-12-11T23:29:17.247Z,44.70
2022-12-11T23:31:47.756Z,42.80
2022-12-11T23:34:18.417Z,43.40
2022-12-11T23:36:49.070Z,40.05
2022-12-11T23:39:19.627Z,47.58
2022-12-11T23:41:50.791Z,52.60
2022-12-11T23:44:21.563Z,48.65
2022-12-11T23:46:52.469Z,42.35
2022-12-11T23:49:32.945Z,47.80
2022-12-11T23:52:05.181Z,49.42
2022-12-11T23:54:35.799Z,43.45
2022-12-11T23:57:06.227Z,52.90
2022-12-11T23:59:37.976Z,47.97
